Sawyer County Airport
KHYR : now visible

Airfield :











YOU CAN JOIN US ON...

 
LOGIN :

Register | Disclaimer

   EN    FR    IT 

 









Legend :    VFR   Marginal VFR   IFR   Intensive IFR   Very Intensive IFR
Visi :
Ceiling :
>= 8 km
>= 3000ft
5 to 8 km
1000 to 3000 ft
1500m to 5 km
500 to 1000 ft
800 to 1500m
200 to 500 ft
< 800m
< 200 ft
Symbols :   Thunderstorms  Fog  Heavy snow  Heavy precipitations  Wind > 20 kt






- Airport Elevation : 1216 ft


KHYR - Sawyer County

CURRENT METAR :
  • 141553Z AUTO 23009KT 10SM OVC018 M07/M12 A3015 RMK AO2 SLP232 T10671117

EXPIRED METARs :
  • 141408Z AUTO 23005KT 10SM BKN019 M08/M13 A3014 RMK AO2 T10831128
  • 141353Z AUTO 22005KT 10SM CLR M09/M13 A3014 RMK AO2 SLP229 T10891133

TAF KHYR
Valid from the 14 at 12:00 until the 15 at 12:00 UTC


141133Z 1412/1512 29004KT P6SM BKN020
TEMPO 1412/1414 SCT020
FM141800 23010G16KT P6SM FEW020
FM142200 23012G17KT P6SM BKN060
FM150000 23008G15KT P6SM OVC021
FM150300 24005KT P6SM -SN OVC019
FM150600 28004KT P6SM SCT020



MET'MAP, your aeronautical weather chart ! - Copyright ORBIFLY December 2007 - Disclaimer

ORBIFLY MET'MAP TEAM :

Programming & Development : Alexandra Zaïnal
Concept & Development : Baudouin d'Aumeries
Co-Development & Prog : Marc-Olivier Méhu
Technical & hardware support : Manuel Goepfert

Contact : metmap@orbifly.com




SOURCES & CREDITS :

   NOAA       Earth
Advisory